createdAt,value
2023-04-16T00:00:44.009Z,36.67
2023-04-16T00:01:44.067Z,36.65
2023-04-16T00:02:44.216Z,36.69
2023-04-16T00:03:44.251Z,36.68
2023-04-16T00:04:44.086Z,36.70
2023-04-16T00:05:44.117Z,36.70
2023-04-16T00:06:44.095Z,36.66
2023-04-16T00:07:44.071Z,36.66
2023-04-16T00:08:44.076Z,36.71
2023-04-16T00:09:44.106Z,36.68
2023-04-16T00:10:44.089Z,36.70
2023-04-16T00:11:44.125Z,36.70
2023-04-16T00:12:44.116Z,36.72
2023-04-16T00:13:44.104Z,36.66
2023-04-16T00:14:44.100Z,36.73
2023-04-16T00:15:44.203Z,36.70
2023-04-16T00:16:44.237Z,36.71
2023-04-16T00:17:44.177Z,36.71
2023-04-16T00:18:44.167Z,36.67
2023-04-16T00:19:44.142Z,36.70
2023-04-16T00:20:44.157Z,36.71
2023-04-16T00:21:44.241Z,36.71
2023-04-16T00:22:44.210Z,36.71
2023-04-16T00:23:44.265Z,36.73
2023-04-16T00:24:44.174Z,36.74
2023-04-16T00:25:44.196Z,36.69
2023-04-16T00:26:44.297Z,36.70
2023-04-16T00:27:44.264Z,36.70
2023-04-16T00:28:44.221Z,36.68
2023-04-16T00:29:44.249Z,36.75
2023-04-16T00:30:44.240Z,36.68
2023-04-16T00:31:44.309Z,36.68
2023-04-16T00:32:44.280Z,36.72
2023-04-16T00:33:44.285Z,36.72
2023-04-16T00:34:44.305Z,36.70
2023-04-16T00:35:44.323Z,36.72
2023-04-16T00:36:44.312Z,36.71
2023-04-16T00:37:44.329Z,36.71
2023-04-16T00:38:44.331Z,36.71
2023-04-16T00:39:44.345Z,36.70
2023-04-16T00:40:44.354Z,36.67
2023-04-16T00:41:44.392Z,36.71
2023-04-16T00:42:44.347Z,36.73
2023-04-16T00:43:44.364Z,36.69
2023-04-16T00:44:44.412Z,36.74
2023-04-16T00:45:44.400Z,36.71
2023-04-16T00:46:44.820Z,36.76
2023-04-16T00:47:44.472Z,36.73
2023-04-16T00:48:44.409Z,36.76
2023-04-16T00:49:44.442Z,36.73
2023-04-16T00:50:44.445Z,36.77
2023-04-16T00:51:44.762Z,36.69
2023-04-16T00:52:44.484Z,36.73
2023-04-16T00:53:44.514Z,36.72
2023-04-16T00:54:44.488Z,36.75
2023-04-16T00:55:44.510Z,36.76
2023-04-16T00:56:44.527Z,36.77
2023-04-16T00:57:44.557Z,36.76
2023-04-16T00:58:44.572Z,36.71
2023-04-16T00:59:44.561Z,36.75
2023-04-16T01:00:44.572Z,36.73
2023-04-16T01:01:44.630Z,36.76
2023-04-16T01:02:44.715Z,36.74
2023-04-16T01:03:44.702Z,36.74
2023-04-16T01:04:44.656Z,36.76
2023-04-16T01:05:44.660Z,36.78
2023-04-16T01:06:44.681Z,36.80
2023-04-16T01:07:44.674Z,36.79
2023-04-16T01:08:44.677Z,36.78
2023-04-16T01:09:44.703Z,36.79
2023-04-16T01:10:44.698Z,36.78
2023-04-16T01:11:44.725Z,36.82
2023-04-16T01:12:44.757Z,36.82
2023-04-16T01:13:44.794Z,36.77
2023-04-16T01:14:44.754Z,36.75
2023-04-16T01:15:44.837Z,36.76
2023-04-16T01:16:44.816Z,36.69
2023-04-16T01:17:44.827Z,36.76
2023-04-16T01:18:44.823Z,36.74
2023-04-16T01:19:44.843Z,36.80
2023-04-16T01:20:44.848Z,36.74
2023-04-16T01:21:44.857Z,36.72
2023-04-16T01:22:44.839Z,36.75
2023-04-16T01:23:44.890Z,36.76
2023-04-16T01:24:44.871Z,36.75
2023-04-16T01:25:44.885Z,36.76
2023-04-16T01:26:44.891Z,36.80
2023-04-16T01:27:44.899Z,36.80
2023-04-16T01:28:44.928Z,36.80
2023-04-16T01:29:44.993Z,36.72
2023-04-16T01:30:44.949Z,36.73
2023-04-16T01:31:45.049Z,36.78
2023-04-16T01:32:45.025Z,36.75
2023-04-16T01:33:44.993Z,36.77
2023-04-16T01:34:45.029Z,36.79
2023-04-16T01:35:45.033Z,36.74
2023-04-16T01:36:45.033Z,36.79
2023-04-16T01:37:45.086Z,36.77
2023-04-16T01:38:45.102Z,36.74
2023-04-16T01:39:45.068Z,36.77
2023-04-16T01:40:45.130Z,36.78
2023-04-16T01:41:45.103Z,36.78
2023-04-16T01:42:45.105Z,36.74
2023-04-16T01:43:45.141Z,36.75
2023-04-16T01:44:45.152Z,36.74
2023-04-16T01:45:45.180Z,36.72
2023-04-16T01:46:45.277Z,36.73
2023-04-16T01:47:45.225Z,36.74
2023-04-16T01:48:45.227Z,36.77
2023-04-16T01:49:45.244Z,36.73
2023-04-16T01:50:45.223Z,36.76
2023-04-16T01:51:45.235Z,36.76
2023-04-16T01:52:45.249Z,36.76
2023-04-16T01:53:45.255Z,36.79
2023-04-16T01:54:45.290Z,36.78
2023-04-16T01:55:45.274Z,36.74
2023-04-16T01:56:45.282Z,36.75
2023-04-16T01:57:45.300Z,36.77
2023-04-16T01:58:45.322Z,36.79
2023-04-16T01:59:45.331Z,36.81
2023-04-16T02:00:45.399Z,36.80
2023-04-16T02:01:45.396Z,36.79
2023-04-16T02:02:45.518Z,36.75
2023-04-16T02:03:45.621Z,36.77
2023-04-16T02:04:45.424Z,36.80
2023-04-16T02:05:45.455Z,36.79
2023-04-16T02:06:45.428Z,36.79
2023-04-16T02:07:45.463Z,36.81
2023-04-16T02:08:45.527Z,36.77
2023-04-16T02:09:45.524Z,36.79
2023-04-16T02:10:45.540Z,36.83
2023-04-16T02:11:45.556Z,36.76
2023-04-16T02:12:45.573Z,36.78
2023-04-16T02:13:45.592Z,36.75
2023-04-16T02:14:45.578Z,36.77
2023-04-16T02:15:45.579Z,36.75
2023-04-16T02:16:45.673Z,36.75
2023-04-16T02:17:45.685Z,36.76
2023-04-16T02:18:45.670Z,36.78
2023-04-16T02:19:45.698Z,36.77
2023-04-16T02:20:45.688Z,36.77
2023-04-16T02:21:45.713Z,36.82
2023-04-16T02:22:45.707Z,36.80
2023-04-16T02:23:45.775Z,36.78
2023-04-16T02:24:45.770Z,36.81
2023-04-16T02:25:45.746Z,36.78
2023-04-16T02:26:45.773Z,36.79
2023-04-16T02:27:45.779Z,36.77
2023-04-16T02:28:45.810Z,36.77
2023-04-16T02:29:45.808Z,36.77
2023-04-16T02:30:45.861Z,36.76
2023-04-16T02:31:45.891Z,36.72
2023-04-16T02:32:45.944Z,36.76
2023-04-16T02:33:45.877Z,36.80
2023-04-16T02:34:45.881Z,36.76
2023-04-16T02:35:45.919Z,36.78
2023-04-16T02:36:45.956Z,36.81
2023-04-16T02:37:45.926Z,36.81
2023-04-16T02:38:45.962Z,36.74
2023-04-16T02:39:45.975Z,36.76
2023-04-16T02:40:45.991Z,36.74
2023-04-16T02:41:46.025Z,36.80
2023-04-16T02:42:46.032Z,36.74
2023-04-16T02:43:46.040Z,36.78
2023-04-16T02:44:46.049Z,36.77
2023-04-16T02:45:46.089Z,36.81
2023-04-16T02:46:46.080Z,36.78
2023-04-16T02:47:46.133Z,36.81
2023-04-16T02:48:46.133Z,36.80
2023-04-16T02:49:46.136Z,36.82
2023-04-16T02:50:46.160Z,36.81
2023-04-16T02:51:46.205Z,36.85
2023-04-16T02:52:46.215Z,36.79
2023-04-16T02:53:46.249Z,36.83
2023-04-16T02:54:46.229Z,36.80
2023-04-16T02:55:46.235Z,36.83
2023-04-16T02:56:46.268Z,36.83
2023-04-16T02:57:46.272Z,36.83
2023-04-16T02:58:46.322Z,36.80
2023-04-16T02:59:46.354Z,36.78
2023-04-16T03:00:46.326Z,36.78
2023-04-16T03:01:46.386Z,36.83
2023-04-16T03:02:46.516Z,36.81
2023-04-16T03:03:46.471Z,36.83
2023-04-16T03:04:46.414Z,36.82
2023-04-16T03:05:46.499Z,36.83
2023-04-16T03:06:46.462Z,36.80
2023-04-16T03:07:46.484Z,36.81
2023-04-16T03:08:46.505Z,36.79
2023-04-16T03:09:46.498Z,36.78
2023-04-16T03:10:46.525Z,36.82
2023-04-16T03:11:46.522Z,36.84
2023-04-16T03:12:46.528Z,36.85
2023-04-16T03:13:46.602Z,36.83
2023-04-16T03:14:46.561Z,36.80
2023-04-16T03:15:46.607Z,36.80
2023-04-16T03:16:46.616Z,36.81
2023-04-16T03:17:46.626Z,36.83
2023-04-16T03:18:46.639Z,36.82
2023-04-16T03:19:46.641Z,36.84
2023-04-16T03:20:46.710Z,36.80
2023-04-16T03:21:46.695Z,36.85
2023-04-16T03:22:46.717Z,36.85
2023-04-16T03:23:46.756Z,36.85
2023-04-16T03:24:46.751Z,36.89
2023-04-16T03:25:46.755Z,36.87
2023-04-16T03:26:46.788Z,36.81
2023-04-16T03:27:46.788Z,36.88
2023-04-16T03:28:46.823Z,36.84
2023-04-16T03:29:46.830Z,36.77
2023-04-16T03:30:46.892Z,36.87
2023-04-16T03:31:46.893Z,36.80
2023-04-16T03:32:47.018Z,36.82
2023-04-16T03:33:46.980Z,36.80
2023-04-16T03:34:46.935Z,36.81
2023-04-16T03:35:46.942Z,36.90
2023-04-16T03:36:46.977Z,36.82
2023-04-16T03:37:47.003Z,36.86
2023-04-16T03:38:47.004Z,36.81
2023-04-16T03:39:47.016Z,36.84
2023-04-16T03:40:47.025Z,36.87
2023-04-16T03:41:47.066Z,36.86
2023-04-16T03:42:47.080Z,36.88
2023-04-16T03:43:47.128Z,36.86
2023-04-16T03:44:47.117Z,36.85
2023-04-16T03:45:47.146Z,36.87
2023-04-16T03:46:47.163Z,36.86
2023-04-16T03:47:47.201Z,36.86
2023-04-16T03:48:47.200Z,36.85
2023-04-16T03:49:47.190Z,36.88
2023-04-16T03:50:47.238Z,36.81
2023-04-16T03:51:47.261Z,36.88
2023-04-16T03:52:47.282Z,36.87
2023-04-16T03:53:47.293Z,36.82
2023-04-16T03:54:47.318Z,36.82
2023-04-16T03:55:47.321Z,36.85
2023-04-16T03:56:47.320Z,36.84
2023-04-16T03:57:47.368Z,36.91
2023-04-16T03:58:47.378Z,36.82
2023-04-16T03:59:47.402Z,36.83
2023-04-16T04:00:47.432Z,36.82
2023-04-16T04:01:47.521Z,36.84
2023-04-16T04:02:47.796Z,36.84
2023-04-16T04:03:47.653Z,36.89
2023-04-16T04:04:48.530Z,36.86
2023-04-16T04:05:47.525Z,36.83
2023-04-16T04:06:47.496Z,36.86
2023-04-16T04:07:47.563Z,36.86
2023-04-16T04:08:47.567Z,36.80
2023-04-16T04:09:47.570Z,36.84
2023-04-16T04:10:47.623Z,36.79
2023-04-16T04:11:47.624Z,36.82
2023-04-16T04:12:47.642Z,36.87
2023-04-16T04:13:48.381Z,36.91
2023-04-16T04:14:47.675Z,36.91
2023-04-16T04:15:47.753Z,36.91
2023-04-16T04:16:47.782Z,36.90
2023-04-16T04:17:47.807Z,36.84
2023-04-16T04:18:47.763Z,36.88
2023-04-16T04:20:00.460Z,36.87
2023-04-16T04:20:48.762Z,36.87
2023-04-16T04:21:47.762Z,36.86
2023-04-16T04:22:47.759Z,36.90
2023-04-16T04:23:47.770Z,36.89
2023-04-16T04:24:47.741Z,36.92
2023-04-16T04:25:47.746Z,36.92
2023-04-16T04:26:47.756Z,36.86
2023-04-16T04:27:47.728Z,36.85
2023-04-16T04:28:47.732Z,36.87
2023-04-16T04:29:47.703Z,36.91
2023-04-16T04:30:47.713Z,36.90
2023-04-16T04:31:47.757Z,36.86
2023-04-16T04:32:47.780Z,36.91
2023-04-16T04:33:47.727Z,36.89
2023-04-16T04:34:47.687Z,36.84
2023-04-16T04:35:47.663Z,36.85
2023-04-16T04:36:47.690Z,36.93
2023-04-16T04:37:47.634Z,36.87
2023-04-16T04:38:47.687Z,36.86
2023-04-16T04:39:47.677Z,36.86
2023-04-16T04:40:47.654Z,36.87
2023-04-16T04:41:47.667Z,36.85
2023-04-16T04:42:47.667Z,36.90
2023-04-16T04:43:47.720Z,36.90
2023-04-16T04:44:47.725Z,36.90
2023-04-16T04:45:47.814Z,36.93
2023-04-16T04:46:47.792Z,36.92
2023-04-16T04:47:47.832Z,36.87
2023-04-16T04:48:47.842Z,36.86
2023-04-16T04:49:47.830Z,36.89
2023-04-16T04:50:47.890Z,36.92
2023-04-16T04:51:47.868Z,36.90
2023-04-16T04:52:47.896Z,36.89
2023-04-16T04:53:47.935Z,36.98
2023-04-16T04:54:47.964Z,36.97
2023-04-16T04:55:50.913Z,36.92
2023-04-16T04:56:48.984Z,36.95
2023-04-16T04:57:47.943Z,36.93
2023-04-16T04:58:47.974Z,36.90
2023-04-16T04:59:47.943Z,36.87
2023-04-16T05:00:47.976Z,36.93
2023-04-16T05:01:47.924Z,36.89
2023-04-16T05:02:48.089Z,36.95
2023-04-16T05:03:48.006Z,36.94
2023-04-16T05:04:47.924Z,36.92
2023-04-16T05:05:47.906Z,36.92
2023-04-16T05:06:47.920Z,36.95
2023-04-16T05:07:47.909Z,36.94
2023-04-16T05:08:47.880Z,36.91
2023-04-16T05:09:47.874Z,36.96
2023-04-16T05:10:47.848Z,36.92
2023-04-16T05:11:47.862Z,36.97
2023-04-16T05:12:49.010Z,36.98
2023-04-16T05:13:47.850Z,37.01
2023-04-16T05:14:47.878Z,36.91
2023-04-16T05:15:47.886Z,36.90
2023-04-16T05:16:47.964Z,36.94
2023-04-16T05:17:47.973Z,36.96
2023-04-16T05:18:47.953Z,36.93
2023-04-16T05:19:47.977Z,36.98
2023-04-16T05:20:48.002Z,36.96
2023-04-16T05:21:48.058Z,36.93
2023-04-16T05:22:48.046Z,36.97
2023-04-16T05:23:48.080Z,36.99
2023-04-16T05:24:48.094Z,36.97
2023-04-16T05:25:48.135Z,36.94
2023-04-16T05:26:48.146Z,36.96
2023-04-16T05:27:48.150Z,36.99
2023-04-16T05:28:48.194Z,37.02
2023-04-16T05:29:48.250Z,36.98
2023-04-16T05:30:48.266Z,36.96
2023-04-16T05:31:48.263Z,36.98
2023-04-16T05:32:48.352Z,36.99
2023-04-16T05:33:48.325Z,37.01
2023-04-16T05:34:48.351Z,36.99
2023-04-16T05:35:48.358Z,36.97
2023-04-16T05:36:48.390Z,37.04
2023-04-16T05:37:48.406Z,37.01
2023-04-16T05:38:48.476Z,36.93
2023-04-16T05:39:48.498Z,36.95
2023-04-16T05:40:48.502Z,37.00
2023-04-16T05:41:48.511Z,36.99
2023-04-16T05:42:48.515Z,37.00
2023-04-16T05:43:48.549Z,36.93
2023-04-16T05:44:48.581Z,36.95
2023-04-16T05:45:48.664Z,36.96
2023-04-16T05:46:48.621Z,37.02
2023-04-16T05:47:48.658Z,37.04
2023-04-16T05:48:48.697Z,37.01
2023-04-16T05:49:48.717Z,37.00
2023-04-16T05:50:48.749Z,37.02
2023-04-16T05:51:50.624Z,37.01
2023-04-16T05:52:48.741Z,37.04
2023-04-16T05:53:48.862Z,37.04
2023-04-16T05:54:48.812Z,36.99
2023-04-16T05:55:48.791Z,36.99
2023-04-16T05:56:48.860Z,36.99
2023-04-16T05:57:48.859Z,36.98
2023-04-16T05:58:48.877Z,36.99
2023-04-16T05:59:48.910Z,37.03
2023-04-16T06:00:48.918Z,37.08
2023-04-16T06:01:48.966Z,36.97
2023-04-16T06:02:49.048Z,37.01
2023-04-16T06:03:49.135Z,37.01
2023-04-16T06:04:48.991Z,36.98
2023-04-16T06:05:49.052Z,37.06
2023-04-16T06:06:49.044Z,37.08
2023-04-16T06:07:49.055Z,37.02
2023-04-16T06:08:49.084Z,37.05
2023-04-16T06:09:49.076Z,37.07
2023-04-16T06:10:49.124Z,37.11
2023-04-16T06:11:49.123Z,37.06
2023-04-16T06:12:49.156Z,36.99
2023-04-16T06:13:49.148Z,37.05
2023-04-16T06:14:49.203Z,37.00
2023-04-16T06:15:49.233Z,37.05
2023-04-16T06:16:49.223Z,37.08
2023-04-16T06:17:49.307Z,37.07
2023-04-16T06:18:49.248Z,37.05
2023-04-16T06:19:49.282Z,37.07
2023-04-16T06:20:49.306Z,37.05
2023-04-16T06:21:49.308Z,37.03
2023-04-16T06:22:49.336Z,37.08
2023-04-16T06:23:49.346Z,37.08
2023-04-16T06:24:49.370Z,37.01
2023-04-16T06:25:49.370Z,37.04
2023-04-16T06:26:49.398Z,37.06
2023-04-16T06:27:49.403Z,37.07
2023-04-16T06:28:49.439Z,37.06
2023-04-16T06:29:49.451Z,37.13
2023-04-16T06:30:49.476Z,37.07
2023-04-16T06:31:49.528Z,37.11
2023-04-16T06:32:49.611Z,37.10
2023-04-16T06:33:49.557Z,37.08
2023-04-16T06:34:49.549Z,37.06
2023-04-16T06:35:49.664Z,37.10
2023-04-16T06:36:49.557Z,37.06
2023-04-16T06:37:49.603Z,37.05
2023-04-16T06:38:49.624Z,37.07
2023-04-16T06:39:49.626Z,37.02
2023-04-16T06:40:49.640Z,37.09
2023-04-16T06:41:49.684Z,37.05
2023-04-16T06:42:49.703Z,37.11
2023-04-16T06:43:49.696Z,37.08
2023-04-16T06:44:49.737Z,37.09
2023-04-16T06:45:49.743Z,37.11
2023-04-16T06:46:49.840Z,37.11
2023-04-16T06:47:49.887Z,37.08
2023-04-16T06:48:49.811Z,37.03
2023-04-16T06:49:49.841Z,37.10
2023-04-16T06:50:49.846Z,37.10
2023-04-16T06:51:49.848Z,37.14
2023-04-16T06:52:49.882Z,37.14
2023-04-16T06:53:49.995Z,37.09
2023-04-16T06:54:49.891Z,37.16
2023-04-16T06:55:49.935Z,37.09
2023-04-16T06:56:49.932Z,37.13
2023-04-16T06:57:49.967Z,37.19
2023-04-16T06:58:49.992Z,37.16
2023-04-16T06:59:50.004Z,37.14
2023-04-16T07:00:50.082Z,37.17
2023-04-16T07:01:50.151Z,37.16
2023-04-16T07:02:51.098Z,37.21
2023-04-16T07:03:50.347Z,37.18
2023-04-16T07:04:50.102Z,37.19
2023-04-16T07:05:50.117Z,37.20
2023-04-16T07:06:50.132Z,37.14
2023-04-16T07:07:50.143Z,37.10
2023-04-16T07:08:50.189Z,37.16
2023-04-16T07:09:50.227Z,37.18
2023-04-16T07:10:50.243Z,37.11
2023-04-16T07:11:50.239Z,37.10
2023-04-16T07:12:50.237Z,37.12
2023-04-16T07:13:50.268Z,37.09
2023-04-16T07:14:50.327Z,37.08
2023-04-16T07:15:50.310Z,37.10
2023-04-16T07:16:50.377Z,37.03
2023-04-16T07:17:50.441Z,37.12
2023-04-16T07:18:50.393Z,37.14
2023-04-16T07:19:50.407Z,37.14
2023-04-16T07:20:50.406Z,37.21
2023-04-16T07:21:50.382Z,37.27
2023-04-16T07:22:50.410Z,37.35
2023-04-16T07:23:50.432Z,37.26
2023-04-16T07:24:50.441Z,37.32
2023-04-16T07:25:50.524Z,37.32
2023-04-16T07:26:50.458Z,37.27
2023-04-16T07:27:50.501Z,37.30
2023-04-16T07:28:50.505Z,37.28
2023-04-16T07:29:50.542Z,37.35
2023-04-16T07:30:50.546Z,37.33
2023-04-16T07:31:50.621Z,37.30
2023-04-16T07:32:50.614Z,37.27
2023-04-16T07:33:50.596Z,37.30
2023-04-16T07:34:50.612Z,37.35
2023-04-16T07:35:50.643Z,37.32
2023-04-16T07:36:50.647Z,37.42
2023-04-16T07:37:50.676Z,37.33
2023-04-16T07:38:50.680Z,37.28
2023-04-16T07:39:50.669Z,37.31
2023-04-16T07:40:50.728Z,37.27
2023-04-16T07:41:50.747Z,37.29
2023-04-16T07:42:50.757Z,37.36
2023-04-16T07:43:50.927Z,37.33
2023-04-16T07:44:50.754Z,37.34
2023-04-16T07:45:50.940Z,37.25
2023-04-16T07:46:50.902Z,37.29
2023-04-16T07:47:50.842Z,37.29
2023-04-16T07:48:50.837Z,37.28
2023-04-16T07:49:50.932Z,37.28
2023-04-16T07:50:50.866Z,37.27
2023-04-16T07:51:50.893Z,37.25
2023-04-16T07:52:50.898Z,37.22
2023-04-16T07:53:50.910Z,37.26
2023-04-16T07:54:50.936Z,37.23
2023-04-16T07:55:50.948Z,37.29
2023-04-16T07:56:51.033Z,37.32
2023-04-16T07:57:50.991Z,37.28
2023-04-16T07:58:51.010Z,37.34
2023-04-16T07:59:51.017Z,37.29
2023-04-16T08:00:51.180Z,37.26
2023-04-16T08:01:51.132Z,37.33
2023-04-16T08:02:51.233Z,37.40
2023-04-16T08:03:51.314Z,37.32
2023-04-16T08:04:51.199Z,37.34
2023-04-16T08:05:51.134Z,37.32
2023-04-16T08:06:51.155Z,37.37
2023-04-16T08:07:51.124Z,37.37
2023-04-16T08:08:51.194Z,37.40
2023-04-16T08:09:51.168Z,37.38
2023-04-16T08:10:51.179Z,37.31
2023-04-16T08:11:51.194Z,37.41
2023-04-16T08:12:51.205Z,37.43
2023-04-16T08:13:51.210Z,37.46
2023-04-16T08:14:51.205Z,37.41
2023-04-16T08:15:51.288Z,37.38
2023-04-16T08:16:51.234Z,37.43
2023-04-16T08:17:51.263Z,37.35
2023-04-16T08:18:51.324Z,37.29
2023-04-16T08:19:51.279Z,37.40
2023-04-16T08:20:51.304Z,37.45
2023-04-16T08:21:51.332Z,37.45
2023-04-16T08:22:51.361Z,37.47
2023-04-16T08:23:51.350Z,37.48
2023-04-16T08:24:51.344Z,37.49
2023-04-16T08:25:52.980Z,37.40
2023-04-16T08:26:51.370Z,37.49
2023-04-16T08:27:51.398Z,37.49
2023-04-16T08:28:51.391Z,37.50
2023-04-16T08:29:51.426Z,37.49
2023-04-16T08:30:51.441Z,37.50
2023-04-16T08:31:51.533Z,37.43
2023-04-16T08:32:51.479Z,37.45
2023-04-16T08:33:51.453Z,37.50
2023-04-16T08:34:51.475Z,37.54
2023-04-16T08:35:51.459Z,37.46
2023-04-16T08:36:51.476Z,37.48
2023-04-16T08:37:51.469Z,37.50
2023-04-16T08:38:51.497Z,37.53
2023-04-16T08:39:51.525Z,37.62
2023-04-16T08:40:51.531Z,37.55
2023-04-16T08:41:51.542Z,37.43
2023-04-16T08:42:51.540Z,37.53
2023-04-16T08:43:51.579Z,37.64
2023-04-16T08:44:51.555Z,37.55
2023-04-16T08:45:51.570Z,37.50
2023-04-16T08:46:51.604Z,37.51
2023-04-16T08:47:51.667Z,37.54
2023-04-16T08:48:51.631Z,37.64
2023-04-16T08:49:51.602Z,37.59
2023-04-16T08:50:51.620Z,37.54
2023-04-16T08:51:51.638Z,37.55
2023-04-16T08:52:51.650Z,37.60
2023-04-16T08:53:51.660Z,37.65
2023-04-16T08:54:56.949Z,37.64
2023-04-16T08:55:52.683Z,37.61
2023-04-16T08:56:51.667Z,37.62
2023-04-16T08:57:51.633Z,37.67
2023-04-16T08:58:51.674Z,37.65
2023-04-16T08:59:51.629Z,37.68
2023-04-16T09:00:51.602Z,37.61
2023-04-16T09:01:51.660Z,37.62
2023-04-16T09:02:51.815Z,37.67
2023-04-16T09:03:51.839Z,37.61
2023-04-16T09:04:51.648Z,37.61
2023-04-16T09:05:51.583Z,37.57
2023-04-16T09:06:51.598Z,37.61
2023-04-16T09:07:51.573Z,37.64
2023-04-16T09:08:51.595Z,37.67
2023-04-16T09:09:51.545Z,37.63
2023-04-16T09:10:51.531Z,37.67
2023-04-16T09:11:51.534Z,37.74
2023-04-16T09:12:51.578Z,37.72
2023-04-16T09:13:51.547Z,37.68
2023-04-16T09:14:51.516Z,37.72
2023-04-16T09:15:51.567Z,37.78
2023-04-16T09:16:51.505Z,37.78
2023-04-16T09:17:51.535Z,37.79
2023-04-16T09:18:51.505Z,37.79
2023-04-16T09:19:51.488Z,37.74
2023-04-16T09:20:51.490Z,37.74
2023-04-16T09:21:51.480Z,37.77
2023-04-16T09:22:51.504Z,37.67
2023-04-16T09:23:51.466Z,37.82
2023-04-16T09:24:51.472Z,37.77
2023-04-16T09:25:51.546Z,37.71
2023-04-16T09:26:51.507Z,37.71
2023-04-16T09:27:51.513Z,37.70
2023-04-16T09:28:51.532Z,37.88
2023-04-16T09:29:51.520Z,37.78
2023-04-16T09:30:51.531Z,37.68
2023-04-16T09:31:51.557Z,37.72
2023-04-16T09:32:51.585Z,37.73
2023-04-16T09:33:51.583Z,37.73
2023-04-16T09:34:51.572Z,37.75
2023-04-16T09:35:51.563Z,37.79
2023-04-16T09:36:51.564Z,37.83
2023-04-16T09:37:51.606Z,37.74
2023-04-16T09:38:51.581Z,37.78
2023-04-16T09:39:51.603Z,37.74
2023-04-16T09:40:51.617Z,37.77
2023-04-16T09:41:51.626Z,37.75
2023-04-16T09:42:51.645Z,37.72
2023-04-16T09:43:51.662Z,37.71
2023-04-16T09:44:51.647Z,37.71
2023-04-16T09:45:51.748Z,37.67
2023-04-16T09:46:51.825Z,37.71
2023-04-16T09:47:51.788Z,37.64
2023-04-16T09:48:51.673Z,37.70
2023-04-16T09:49:51.683Z,37.71
2023-04-16T09:50:51.671Z,37.79
2023-04-16T09:51:51.723Z,37.73
2023-04-16T09:52:51.728Z,37.75
2023-04-16T09:53:51.702Z,37.76
2023-04-16T09:54:51.750Z,37.79
2023-04-16T09:55:51.736Z,37.78
2023-04-16T09:56:51.717Z,37.85
2023-04-16T09:57:51.720Z,37.83
2023-04-16T09:58:51.726Z,37.76
2023-04-16T09:59:51.731Z,37.81
2023-04-16T10:00:51.730Z,37.81
2023-04-16T10:01:51.843Z,37.75
2023-04-16T10:02:51.810Z,37.74
2023-04-16T10:03:52.077Z,37.75
2023-04-16T10:04:51.839Z,37.74
2023-04-16T10:05:51.774Z,37.73
2023-04-16T10:06:51.800Z,37.62
2023-04-16T10:07:51.774Z,37.64
2023-04-16T10:08:51.770Z,37.57
2023-04-16T10:09:51.797Z,37.62
2023-04-16T10:10:51.811Z,37.55
2023-04-16T10:11:51.837Z,37.46
2023-04-16T10:12:51.814Z,37.50
2023-04-16T10:13:51.814Z,37.51
2023-04-16T10:14:51.815Z,37.54
2023-04-16T10:15:51.836Z,37.50
2023-04-16T10:16:51.910Z,37.49
2023-04-16T10:17:51.845Z,37.59
2023-04-16T10:18:51.797Z,37.50
2023-04-16T10:19:51.801Z,37.57
2023-04-16T10:20:51.804Z,37.53
2023-04-16T10:21:51.843Z,37.51
2023-04-16T10:22:51.802Z,37.56
2023-04-16T10:23:51.884Z,37.45
2023-04-16T10:24:51.803Z,37.42
2023-04-16T10:25:51.813Z,37.39
2023-04-16T10:26:51.818Z,37.45
2023-04-16T10:27:51.808Z,37.56
2023-04-16T10:28:51.833Z,37.52
2023-04-16T10:29:51.810Z,37.50
2023-04-16T10:30:51.872Z,37.45
2023-04-16T10:31:51.820Z,37.47
2023-04-16T10:32:51.861Z,37.46
2023-04-16T10:33:51.997Z,37.59
2023-04-16T10:34:51.824Z,37.68
2023-04-16T10:36:04.712Z,37.65
2023-04-16T10:36:52.844Z,37.61
2023-04-16T10:37:51.799Z,37.64
2023-04-16T10:38:51.848Z,37.64
2023-04-16T10:39:51.814Z,37.68
2023-04-16T10:40:51.815Z,37.74
2023-04-16T10:41:51.780Z,37.66
2023-04-16T10:42:51.802Z,37.73
2023-04-16T10:43:51.796Z,37.70
2023-04-16T10:44:51.759Z,37.78
2023-04-16T10:45:51.784Z,37.67
2023-04-16T10:46:51.764Z,37.52
2023-04-16T10:47:51.772Z,37.62
2023-04-16T10:48:51.768Z,37.74
2023-04-16T10:49:51.739Z,37.73
2023-04-16T10:50:52.269Z,37.71
2023-04-16T10:51:51.713Z,37.73
2023-04-16T10:52:51.729Z,37.71
2023-04-16T10:53:51.738Z,37.76
2023-04-16T10:54:51.700Z,37.67
2023-04-16T10:55:51.694Z,37.71
2023-04-16T10:56:51.680Z,37.87
2023-04-16T10:57:51.676Z,37.77
2023-04-16T10:58:51.716Z,37.69
2023-04-16T10:59:51.683Z,37.68
2023-04-16T11:00:51.649Z,37.84
2023-04-16T11:01:51.779Z,37.68
2023-04-16T11:02:52.155Z,37.65
2023-04-16T11:03:51.737Z,37.66
2023-04-16T11:04:51.711Z,37.64
2023-04-16T11:05:51.717Z,37.72
2023-04-16T11:06:51.616Z,37.71
2023-04-16T11:07:51.647Z,37.78
2023-04-16T11:09:08.471Z,37.77
2023-04-16T11:09:52.606Z,37.86
2023-04-16T11:10:51.602Z,37.76
2023-04-16T11:11:51.594Z,37.66
2023-04-16T11:12:51.622Z,37.88
2023-04-16T11:13:51.568Z,37.94
2023-04-16T11:14:51.591Z,37.89
2023-04-16T11:15:51.607Z,37.90
2023-04-16T11:16:51.557Z,37.79
2023-04-16T11:17:51.681Z,37.80
2023-04-16T11:18:51.984Z,37.80
2023-04-16T11:19:51.564Z,37.86
2023-04-16T11:20:51.560Z,37.82
2023-04-16T11:21:51.521Z,37.82
2023-04-16T11:22:51.520Z,37.89
2023-04-16T11:23:51.549Z,37.87
2023-04-16T11:24:51.514Z,37.88
2023-04-16T11:25:51.503Z,37.84
2023-04-16T11:26:51.493Z,37.70
2023-04-16T11:27:51.540Z,37.66
2023-04-16T11:28:51.482Z,37.65
2023-04-16T11:29:51.492Z,37.68
2023-04-16T11:30:51.453Z,37.61
2023-04-16T11:31:51.558Z,37.61
2023-04-16T11:32:51.505Z,37.67
2023-04-16T11:33:51.451Z,37.70
2023-04-16T11:34:51.423Z,37.74
2023-04-16T11:35:51.451Z,37.75
2023-04-16T11:36:51.465Z,37.86
2023-04-16T11:37:51.457Z,37.88
2023-04-16T11:38:51.427Z,37.71
2023-04-16T11:39:51.396Z,37.66
2023-04-16T11:40:51.414Z,37.70
2023-04-16T11:41:51.409Z,37.78
2023-04-16T11:42:51.393Z,37.72
2023-04-16T11:43:51.392Z,37.84
2023-04-16T11:44:51.399Z,37.65
2023-04-16T11:45:51.369Z,37.69
2023-04-16T11:46:51.388Z,37.74
2023-04-16T11:47:51.436Z,37.75
2023-04-16T11:48:51.406Z,37.86
2023-04-16T11:49:51.336Z,37.87
2023-04-16T11:50:51.356Z,37.89
2023-04-16T11:51:51.326Z,37.71
2023-04-16T11:52:51.359Z,37.74
2023-04-16T11:53:51.377Z,37.67
2023-04-16T11:54:51.318Z,37.65
2023-04-16T11:55:51.292Z,37.69
2023-04-16T11:56:51.328Z,37.75
2023-04-16T11:57:52.238Z,37.78
2023-04-16T11:58:51.290Z,37.78
2023-04-16T12:00:01.554Z,37.80
2023-04-16T12:00:52.320Z,37.81
2023-04-16T12:01:51.499Z,37.82
2023-04-16T12:02:51.413Z,37.82
2023-04-16T12:03:51.474Z,37.91
2023-04-16T12:04:51.384Z,37.89
2023-04-16T12:05:51.248Z,37.87
2023-04-16T12:06:51.241Z,37.83
2023-04-16T12:07:51.248Z,37.78
2023-04-16T12:08:51.237Z,37.84
2023-04-16T12:09:51.248Z,37.77
2023-04-16T12:10:51.213Z,37.80
2023-04-16T12:11:51.235Z,37.90
2023-04-16T12:12:51.200Z,37.88
2023-04-16T12:13:51.205Z,37.83
2023-04-16T12:14:51.211Z,37.83
2023-04-16T12:15:51.209Z,37.82
2023-04-16T12:16:51.226Z,37.80
2023-04-16T12:17:51.220Z,37.73
2023-04-16T12:18:51.210Z,37.74
2023-04-16T12:19:51.198Z,37.77
2023-04-16T12:20:51.168Z,37.71
2023-04-16T12:21:51.200Z,37.73
2023-04-16T12:22:51.150Z,37.74
2023-04-16T12:23:51.140Z,37.74
2023-04-16T12:24:51.172Z,37.71
2023-04-16T12:25:51.133Z,37.74
2023-04-16T12:26:51.148Z,37.78
2023-04-16T12:27:52.992Z,37.78
2023-04-16T12:28:51.096Z,37.77
2023-04-16T12:29:51.098Z,37.70
2023-04-16T12:30:51.098Z,37.72
2023-04-16T12:31:51.089Z,37.67
2023-04-16T12:32:51.134Z,37.73
2023-04-16T12:33:51.080Z,37.75
2023-04-16T12:34:51.070Z,37.73
2023-04-16T12:35:51.105Z,37.65
2023-04-16T12:36:51.076Z,37.63
2023-04-16T12:37:51.047Z,37.57
2023-04-16T12:38:51.059Z,37.64
2023-04-16T12:39:51.036Z,37.64
2023-04-16T12:40:51.077Z,37.65
2023-04-16T12:41:51.020Z,37.70
2023-04-16T12:42:51.014Z,37.63
2023-04-16T12:43:51.002Z,37.59
2023-04-16T12:44:50.983Z,37.57
2023-04-16T12:45:51.041Z,37.54
2023-04-16T12:46:51.186Z,37.57
2023-04-16T12:47:51.015Z,37.64
2023-04-16T12:48:50.999Z,37.67
2023-04-16T12:49:50.977Z,37.76
2023-04-16T12:50:51.139Z,37.69
2023-04-16T12:51:50.961Z,37.62
2023-04-16T12:52:50.972Z,37.65